Lawsonville, North Carolina
Current Conditions -  °F | °C
As of 2:35 PM on Thursday 27 Nov 2014 (Local Time) from KMTV Reporting Station
Broken Clouds Broken Clouds  
Wind Chill: 37°   Ceiling: 5500
Heat Index: 44°   Visibility: 10mi
Dew Point: 28°   Wind: 16mph
Humidity: 53%   Direction: 320°NW
Pressure: 30.11"   Gusts: 24mph
Location:  36.51°N, 80.22°W
Report Text: KMTV 271935Z AUTO 32014G21KT 10SM BKN055 07/M02 A3011 RMK AO2 T00681023
Loading
Personal Weather Stations






























Interactive Weather Map New forecast layout! Learn more

10-Day Weather Forecast

Advertisements
Track Severe Weather on mobile